Time,TemperatureF,DewpointF,PressureIn,WindDirection,WindDirectionDegrees,WindSpeedMPH,WindSpeedGustMPH,Humidity,HourlyPrecipIn,Conditions,Clouds,dailyrainin,SoftwareType,DateUTC
2013-05-02 00:02:00,34.0,32.0,30.31,North,0,6.0,19.0,94,0.05,,,0.66,,2013-05-02 05:02:00,
2013-05-02 00:12:00,34.0,32.0,30.31,North,0,6.0,19.0,94,0.05,,,0.66,,2013-05-02 05:12:00,
2013-05-02 00:22:00,34.0,32.0,30.31,North,0,6.0,19.0,94,0.05,,,0.66,,2013-05-02 05:22:00,
2013-05-02 00:32:00,33.0,32.0,30.31,NNW,331,5.0,16.0,95,0.00,,,0.66,,2013-05-02 05:32:00,
2013-05-02 00:42:00,33.0,32.0,30.31,NNW,331,5.0,16.0,95,0.00,,,0.66,,2013-05-02 05:42:00,
2013-05-02 00:52:00,33.0,32.0,30.33,North,5,4.0,10.0,95,0.00,,,0.66,,2013-05-02 05:52:00,
2013-05-02 01:01:00,33.0,32.0,30.33,North,5,4.0,10.0,95,0.00,,,0.66,,2013-05-02 06:01:00,
2013-05-02 01:12:00,33.0,32.0,30.33,North,5,4.0,10.0,95,0.00,,,0.66,,2013-05-02 06:12:00,
2013-05-02 01:21:00,33.0,32.0,30.33,NNW,342,4.0,11.0,95,0.00,,,0.67,,2013-05-02 06:21:00,
2013-05-02 01:32:00,33.0,32.0,30.34,NNW,348,3.0,8.0,96,0.00,,,0.67,,2013-05-02 06:32:00,
2013-05-02 01:42:00,33.0,32.0,30.34,NNW,348,3.0,8.0,96,0.00,,,0.67,,2013-05-02 06:42:00,
2013-05-02 01:52:00,33.0,32.0,30.34,NNW,339,3.0,8.0,96,0.00,,,0.67,,2013-05-02 06:52:00,
2013-05-02 02:02:00,33.0,32.0,30.34,NNW,345,3.0,9.0,96,0.00,,,0.68,,2013-05-02 07:02:00,
2013-05-02 02:11:00,33.0,32.0,30.34,NNW,345,3.0,9.0,96,0.00,,,0.68,,2013-05-02 07:11:00,
2013-05-02 02:21:00,33.0,32.0,30.34,NNW,345,3.0,9.0,96,0.00,,,0.68,,2013-05-02 07:21:00,
2013-05-02 02:32:00,33.0,32.0,30.34,NW,326,4.0,12.0,97,0.00,,,0.68,,2013-05-02 07:32:00,
2013-05-02 02:42:00,33.0,32.0,30.34,NW,326,4.0,12.0,97,0.00,,,0.68,,2013-05-02 07:42:00,
2013-05-02 02:52:00,33.0,32.0,30.34,NW,326,4.0,12.0,97,0.00,,,0.68,,2013-05-02 07:52:00,
2013-05-02 03:02:00,33.0,32.0,30.34,NNW,328,4.0,13.0,96,0.00,,,0.69,,2013-05-02 08:02:00,
2013-05-02 03:11:00,33.0,32.0,30.34,NNW,328,4.0,13.0,96,0.00,,,0.69,,2013-05-02 08:11:00,
2013-05-02 03:22:00,33.0,32.0,30.34,NNW,343,5.0,11.0,96,0.04,,,0.70,,2013-05-02 08:22:00,
2013-05-02 03:32:00,34.0,33.0,30.34,NNW,340,5.0,13.0,96,0.00,,,0.70,,2013-05-02 08:32:00,
2013-05-02 03:42:00,34.0,33.0,30.34,NNW,340,5.0,13.0,96,0.00,,,0.70,,2013-05-02 08:42:00,
2013-05-02 03:52:00,34.0,33.0,30.34,NNW,340,5.0,13.0,96,0.00,,,0.70,,2013-05-02 08:52:00,
2013-05-02 04:02:00,34.0,32.0,30.34,NNW,344,5.0,16.0,94,0.00,,,0.71,,2013-05-02 09:02:00,
2013-05-02 04:11:00,34.0,32.0,30.34,NNW,344,5.0,16.0,94,0.00,,,0.71,,2013-05-02 09:11:00,
2013-05-02 04:21:00,34.0,32.0,30.34,NNW,336,4.0,12.0,94,0.00,,,0.72,,2013-05-02 09:21:00,
2013-05-02 04:32:00,34.0,32.0,30.34,NNW,336,4.0,12.0,94,0.00,,,0.72,,2013-05-02 09:32:00,
2013-05-02 04:42:00,34.0,32.0,30.34,NNW,336,4.0,12.0,94,0.00,,,0.72,,2013-05-02 09:42:00,
2013-05-02 04:52:00,34.0,32.0,30.36,NNW,340,4.0,9.0,94,0.00,,,0.73,,2013-05-02 09:52:00,
2013-05-02 05:03:00,34.0,32.0,30.36,North,355,5.0,13.0,93,0.00,,,0.73,,2013-05-02 10:03:00,
2013-05-02 05:12:00,34.0,32.0,30.36,North,355,5.0,13.0,93,0.00,,,0.73,,2013-05-02 10:12:00,
2013-05-02 05:22:00,34.0,32.0,30.38,SW,233,4.0,12.0,92,0.00,,,0.74,,2013-05-02 10:22:00,
2013-05-02 05:33:00,34.0,32.0,30.38,SW,233,4.0,12.0,92,0.00,,,0.74,,2013-05-02 10:33:00,
2013-05-02 05:42:00,34.0,32.0,30.38,SW,233,4.0,12.0,92,0.00,,,0.74,,2013-05-02 10:42:00,
2013-05-02 05:52:00,35.0,32.0,30.38,NNW,329,3.0,14.0,90,0.00,,,0.75,,2013-05-02 10:52:00,
2013-05-02 06:02:00,35.0,32.0,30.38,NNW,329,3.0,14.0,90,0.00,,,0.75,,2013-05-02 11:02:00,
2013-05-02 06:12:00,35.0,32.0,30.38,NNW,329,3.0,14.0,90,0.00,,,0.75,,2013-05-02 11:12:00,
2013-05-02 06:22:00,35.0,32.0,30.39,NNW,336,6.0,14.0,88,0.00,,,0.76,,2013-05-02 11:22:00,
2013-05-02 06:32:00,35.0,32.0,30.39,NNW,336,6.0,14.0,88,0.00,,,0.76,,2013-05-02 11:32:00,
2013-05-02 06:42:00,35.0,32.0,30.39,NNW,336,6.0,14.0,88,0.00,,,0.76,,2013-05-02 11:42:00,
2013-05-02 06:52:00,35.0,32.0,30.39,NNW,332,7.0,16.0,87,0.00,,,0.77,,2013-05-02 11:52:00,
2013-05-02 07:01:00,35.0,31.0,30.41,NW,319,5.0,16.0,85,0.00,,,0.77,,2013-05-02 12:01:00,
2013-05-02 07:11:00,35.0,31.0,30.41,NW,319,5.0,16.0,85,0.00,,,0.77,,2013-05-02 12:11:00,
2013-05-02 07:21:00,35.0,31.0,30.41,North,355,5.0,15.0,85,0.00,,,0.78,,2013-05-02 12:21:00,
2013-05-02 07:32:00,35.0,31.0,30.41,North,355,5.0,15.0,85,0.00,,,0.78,,2013-05-02 12:32:00,
2013-05-02 07:42:00,35.0,31.0,30.41,North,355,5.0,15.0,85,0.00,,,0.78,,2013-05-02 12:42:00,
2013-05-02 07:52:00,35.0,30.0,30.41,NNW,327,6.0,13.0,83,0.00,,,0.79,,2013-05-02 12:52:00,
2013-05-02 08:01:00,35.0,30.0,30.41,NNW,339,4.0,11.0,83,0.00,,,0.80,,2013-05-02 13:01:00,
2013-05-02 08:11:00,35.0,30.0,30.41,NNW,339,4.0,11.0,83,0.00,,,0.80,,2013-05-02 13:11:00,
2013-05-02 08:21:00,36.0,31.0,30.42,NNW,348,6.0,15.0,81,0.00,,,0.81,,2013-05-02 13:21:00,
2013-05-02 08:32:00,36.0,31.0,30.42,NNE,29,4.0,12.0,81,0.00,,,0.81,,2013-05-02 13:32:00,
2013-05-02 08:42:00,36.0,31.0,30.42,NNE,29,4.0,12.0,81,0.00,,,0.81,,2013-05-02 13:42:00,
2013-05-02 08:52:00,36.0,31.0,30.42,NNE,29,4.0,12.0,81,0.00,,,0.81,,2013-05-02 13:52:00,
2013-05-02 09:02:00,36.0,31.0,30.42,NNE,29,4.0,12.0,81,0.00,,,0.81,,2013-05-02 14:02:00,
2013-05-02 09:11:00,36.0,31.0,30.42,NNE,29,4.0,12.0,81,0.00,,,0.81,,2013-05-02 14:11:00,
2013-05-02 09:22:00,37.0,31.0,30.44,NNW,342,4.0,11.0,80,0.04,,,0.84,,2013-05-02 14:22:00,
2013-05-02 09:32:00,37.0,31.0,30.44,NNW,342,4.0,11.0,80,0.04,,,0.84,,2013-05-02 14:32:00,
2013-05-02 09:43:00,37.0,31.0,30.44,NNW,342,4.0,11.0,80,0.04,,,0.84,,2013-05-02 14:43:00,
2013-05-02 09:52:00,37.0,31.0,30.44,NNE,22,6.0,13.0,78,0.00,,,0.86,,2013-05-02 14:52:00,
2013-05-02 10:02:00,37.0,30.0,30.44,North,349,5.0,13.0,77,0.00,,,0.87,,2013-05-02 15:02:00,
2013-05-02 10:12:00,37.0,30.0,30.44,North,349,5.0,13.0,77,0.00,,,0.87,,2013-05-02 15:12:00,
2013-05-02 10:22:00,37.0,30.0,30.44,North,349,5.0,13.0,77,0.00,,,0.87,,2013-05-02 15:22:00,
2013-05-02 10:33:00,37.0,29.0,30.44,NNW,334,8.0,16.0,73,0.04,,,0.89,,2013-05-02 15:33:00,
2013-05-02 10:43:00,37.0,29.0,30.44,NNW,334,8.0,16.0,73,0.04,,,0.89,,2013-05-02 15:43:00,
2013-05-02 11:02:00,38.0,29.0,30.42,NNW,344,8.0,18.0,70,0.04,,,0.89,,2013-05-02 16:02:00,
2013-05-02 11:13:00,38.0,29.0,30.42,NNW,344,8.0,18.0,70,0.04,,,0.89,,2013-05-02 16:13:00,
2013-05-02 11:22:00,39.0,25.0,30.44,NNW,329,11.0,21.0,58,0.04,,,0.92,,2013-05-02 16:22:00,
2013-05-02 11:32:00,39.0,25.0,30.44,NNW,329,11.0,21.0,58,0.04,,,0.92,,2013-05-02 16:32:00,
2013-05-02 11:43:00,39.0,25.0,30.44,NNW,329,11.0,21.0,58,0.04,,,0.92,,2013-05-02 16:43:00,
2013-05-02 11:52:00,40.0,24.0,30.44,North,5,11.0,23.0,53,0.04,,,0.94,,2013-05-02 16:52:00,
2013-05-02 12:02:00,40.0,23.0,30.44,North,0,12.0,22.0,51,0.00,,,0.94,,2013-05-02 17:02:00,
2013-05-02 12:12:00,40.0,23.0,30.44,North,0,12.0,22.0,51,0.00,,,0.94,,2013-05-02 17:12:00,
2013-05-02 12:22:00,40.0,25.0,30.44,NNW,336,11.0,28.0,54,0.00,,,0.95,,2013-05-02 17:22:00,
2013-05-02 12:31:00,41.0,25.0,30.44,North,355,10.0,23.0,52,0.00,,,0.95,,2013-05-02 17:31:00,
2013-05-02 12:42:00,41.0,25.0,30.44,North,355,10.0,23.0,52,0.00,,,0.95,,2013-05-02 17:42:00,
2013-05-02 12:52:00,41.0,25.0,30.44,North,5,9.0,19.0,52,0.00,,,0.95,,2013-05-02 17:52:00,
2013-05-02 13:01:00,41.0,25.0,30.44,North,5,9.0,19.0,52,0.00,,,0.95,,2013-05-02 18:01:00,
2013-05-02 13:11:00,41.0,25.0,30.44,North,5,9.0,19.0,52,0.00,,,0.95,,2013-05-02 18:11:00,
2013-05-02 13:21:00,41.0,25.0,30.44,North,5,9.0,19.0,52,0.00,,,0.95,,2013-05-02 18:21:00,
2013-05-02 13:32:00,43.0,27.0,30.43,NE,34,9.0,19.0,53,0.00,,,0.95,,2013-05-02 18:32:00,
2013-05-02 13:42:00,43.0,27.0,30.43,NE,34,9.0,19.0,53,0.00,,,0.95,,2013-05-02 18:42:00,
2013-05-02 13:52:00,43.0,28.0,30.43,ENE,57,7.0,18.0,55,0.00,,,0.95,,2013-05-02 18:52:00,
2013-05-02 14:01:00,44.0,27.0,30.41,North,355,9.0,24.0,51,0.00,,,0.95,,2013-05-02 19:01:00,
2013-05-02 14:11:00,44.0,27.0,30.41,North,355,9.0,24.0,51,0.00,,,0.95,,2013-05-02 19:11:00,
2013-05-02 14:21:00,44.0,27.0,30.41,NW,313,9.0,24.0,51,0.00,,,0.95,,2013-05-02 19:21:00,
2013-05-02 14:32:00,44.0,27.0,30.41,NW,320,8.0,21.0,51,0.00,,,0.95,,2013-05-02 19:32:00,
2013-05-02 14:42:00,44.0,27.0,30.41,NW,320,8.0,21.0,51,0.00,,,0.95,,2013-05-02 19:42:00,
2013-05-02 14:52:00,44.0,27.0,30.41,NW,320,8.0,21.0,51,0.00,,,0.95,,2013-05-02 19:52:00,
2013-05-02 15:02:00,45.0,27.0,30.40,NE,47,10.0,26.0,49,0.00,,,0.91,,2013-05-02 20:02:00,
2013-05-02 15:11:00,45.0,27.0,30.40,NE,47,10.0,26.0,49,0.00,,,0.91,,2013-05-02 20:11:00,
2013-05-02 15:22:00,45.0,25.0,30.40,NNW,331,11.0,26.0,46,0.00,,,0.90,,2013-05-02 20:22:00,
2013-05-02 15:32:00,45.0,27.0,30.40,NNW,334,11.0,23.0,48,0.00,,,0.89,,2013-05-02 20:32:00,
2013-05-02 15:41:00,45.0,27.0,30.40,NNW,334,11.0,23.0,48,0.00,,,0.89,,2013-05-02 20:41:00,
2013-05-02 15:52:00,45.0,27.0,30.40,NNE,17,11.0,21.0,49,0.00,,,0.88,,2013-05-02 20:52:00,
2013-05-02 16:01:00,45.0,27.0,30.38,NNW,334,10.0,25.0,48,0.00,,,0.88,,2013-05-02 21:01:00,
2013-05-02 16:11:00,45.0,27.0,30.38,NNW,334,10.0,25.0,48,0.00,,,0.88,,2013-05-02 21:11:00,
2013-05-02 16:21:00,45.0,24.0,30.38,NW,321,11.0,19.0,44,0.00,,,0.88,,2013-05-02 21:21:00,
2013-05-02 16:33:00,46.0,28.0,30.37,NNW,333,9.0,21.0,50,0.00,,,0.87,,2013-05-02 21:33:00,
2013-05-02 16:42:00,46.0,28.0,30.37,NNW,333,9.0,21.0,50,0.00,,,0.87,,2013-05-02 21:42:00,
2013-05-02 16:53:00,46.0,28.0,30.37,NNW,333,9.0,21.0,50,0.00,,,0.87,,2013-05-02 21:53:00,
2013-05-02 17:02:00,46.0,28.0,30.36,NNW,333,8.0,19.0,49,0.00,,,0.87,,2013-05-02 22:02:00,
2013-05-02 17:12:00,46.0,28.0,30.36,NNW,333,8.0,19.0,49,0.00,,,0.87,,2013-05-02 22:12:00,
2013-05-02 17:22:00,46.0,28.0,30.36,NNW,333,8.0,19.0,49,0.00,,,0.87,,2013-05-02 22:22:00,
2013-05-02 17:32:00,47.0,29.0,30.35,NNW,335,5.0,16.0,49,0.00,,,0.86,,2013-05-02 22:32:00,
2013-05-02 17:42:00,47.0,29.0,30.35,NNW,335,5.0,16.0,49,0.00,,,0.86,,2013-05-02 22:42:00,
2013-05-02 17:52:00,47.0,28.0,30.36,NNW,338,7.0,17.0,47,0.00,,,0.83,,2013-05-02 22:52:00,
2013-05-02 18:02:00,47.0,27.0,30.35,NNW,340,8.0,17.0,46,0.00,,,0.80,,2013-05-02 23:02:00,
2013-05-02 18:11:00,47.0,27.0,30.35,NNW,340,8.0,17.0,46,0.00,,,0.80,,2013-05-02 23:11:00,
2013-05-02 18:22:00,47.0,27.0,30.35,NNW,340,8.0,17.0,46,0.00,,,0.80,,2013-05-02 23:22:00,
2013-05-02 18:32:00,48.0,28.0,30.34,NW,313,9.0,18.0,45,0.00,,,0.78,,2013-05-02 23:32:00,
2013-05-02 18:42:00,48.0,28.0,30.34,NW,313,9.0,18.0,45,0.00,,,0.78,,2013-05-02 23:42:00,
2013-05-02 18:52:00,48.0,27.0,30.34,NNE,22,9.0,17.0,43,0.00,,,0.77,,2013-05-02 23:52:00,
2013-05-02 19:01:00,48.0,28.0,30.33,NNW,343,6.0,19.0,45,0.00,,,0.72,,2013-05-03 00:01:00,
2013-05-02 19:11:00,48.0,28.0,30.33,NNW,343,6.0,19.0,45,0.00,,,0.72,,2013-05-03 00:11:00,
2013-05-02 19:21:00,48.0,28.0,30.33,NNW,343,6.0,19.0,45,0.00,,,0.72,,2013-05-03 00:21:00,
2013-05-02 19:31:00,48.0,27.0,30.32,NNW,337,7.0,19.0,43,0.00,,,0.65,,2013-05-03 00:31:00,
2013-05-02 19:41:00,48.0,27.0,30.32,NNW,337,7.0,19.0,43,0.00,,,0.65,,2013-05-03 00:41:00,
2013-05-02 19:52:00,47.0,27.0,30.32,NNE,19,4.0,13.0,45,0.00,,,0.61,,2013-05-03 00:52:00,
2013-05-02 20:01:00,47.0,27.0,30.32,NNW,333,5.0,11.0,45,0.00,,,0.55,,2013-05-03 01:01:00,
2013-05-02 20:11:00,47.0,27.0,30.32,NNW,333,5.0,11.0,45,0.00,,,0.55,,2013-05-03 01:11:00,
2013-05-02 20:21:00,47.0,28.0,30.32,North,10,4.0,12.0,47,0.00,,,0.54,,2013-05-03 01:21:00,
2013-05-02 20:31:00,46.0,25.0,30.32,NW,321,4.0,13.0,44,0.00,,,0.47,,2013-05-03 01:31:00,
2013-05-02 20:42:00,46.0,25.0,30.32,NW,321,4.0,13.0,44,0.00,,,0.47,,2013-05-03 01:42:00,
2013-05-02 20:52:00,46.0,27.0,30.32,North,0,3.0,13.0,48,0.00,,,0.46,,2013-05-03 01:52:00,
2013-05-02 21:01:00,46.0,27.0,30.32,NNW,341,3.0,9.0,48,0.00,,,0.44,,2013-05-03 02:01:00,
2013-05-02 21:11:00,46.0,27.0,30.32,NNW,341,3.0,9.0,48,0.00,,,0.44,,2013-05-03 02:11:00,
2013-05-02 21:21:00,45.0,27.0,30.32,North,11,3.0,9.0,49,0.00,,,0.43,,2013-05-03 02:21:00,
2013-05-02 21:32:00,45.0,27.0,30.32,NNW,346,2.0,8.0,49,0.00,,,0.43,,2013-05-03 02:32:00,
2013-05-02 21:42:00,45.0,27.0,30.32,NNW,346,2.0,8.0,49,0.00,,,0.43,,2013-05-03 02:42:00,
2013-05-02 21:52:00,45.0,27.0,30.32,NNW,346,2.0,8.0,49,0.00,,,0.43,,2013-05-03 02:52:00,
2013-05-02 22:01:00,44.0,27.0,30.32,North,9,3.0,10.0,50,0.00,,,0.41,,2013-05-03 03:01:00,
2013-05-02 22:11:00,44.0,27.0,30.32,North,9,3.0,10.0,50,0.00,,,0.41,,2013-05-03 03:11:00,
2013-05-02 22:21:00,44.0,27.0,30.32,NNW,330,3.0,11.0,51,0.00,,,0.41,,2013-05-03 03:21:00,
2013-05-02 22:33:00,44.0,27.0,30.32,NNW,329,4.0,11.0,51,0.00,,,0.40,,2013-05-03 03:33:00,
2013-05-02 22:42:00,44.0,27.0,30.32,NNW,329,4.0,11.0,51,0.00,,,0.40,,2013-05-03 03:42:00,
2013-05-02 22:52:00,44.0,27.0,30.32,NNW,329,4.0,11.0,51,0.00,,,0.40,,2013-05-03 03:52:00,
2013-05-02 23:03:00,43.0,27.0,30.31,NW,315,4.0,11.0,52,0.00,,,0.34,,2013-05-03 04:03:00,
2013-05-02 23:12:00,43.0,27.0,30.31,NW,315,4.0,11.0,52,0.00,,,0.34,,2013-05-03 04:12:00,
2013-05-02 23:23:00,43.0,27.0,30.31,NW,315,4.0,11.0,52,0.00,,,0.34,,2013-05-03 04:23:00,
2013-05-02 23:32:00,43.0,27.0,30.31,NW,315,4.0,11.0,52,0.00,,,0.34,,2013-05-03 04:32:00,
2013-05-02 23:42:00,43.0,27.0,30.31,NW,315,4.0,11.0,52,0.00,,,0.34,,2013-05-03 04:42:00,
2013-05-02 23:53:00,42.0,26.0,30.30,North,350,5.0,13.0,53,0.00,,,0.29,,2013-05-03 04:53:00,